Time;durP1;ratioP1;P1;durP2;ratioP2;P2;SDS_P1;SDS_P2;PMS_P1;PMS_P2;Temp;Humidity;BMP_temperature;BMP_pressure;BME280_temperature;BME280_humidity;BME280_pressure;Samples;Min_cycle;Max_cycle;Signal;HPM_P1;HPM_P2
2022/07/21 01:37:19;;;;;;;6.10;4.20;;;16.20;99.90;;;;;;5092690;28;20043;-76
2022/07/21 01:42:34;;;;;;;9.07;4.28;;;16.10;99.90;;;;;;5075406;28;20086;-76
2022/07/21 01:45:01;;;;;;;8.77;4.50;;;16.00;99.90;;;;;;5074908;28;20041;-75
2022/07/21 01:47:28;;;;;;;7.53;3.83;;;16.00;99.90;;;;;;5073595;28;20044;-75
2022/07/21 01:49:56;;;;;;;5.70;4.15;;;16.00;99.90;;;;;;5074761;28;20123;-76
2022/07/21 01:52:23;;;;;;;5.75;4.20;;;15.90;99.90;;;;;;5073750;28;20053;-77
2022/07/21 01:54:52;;;;;;;5.93;3.90;;;15.90;99.90;;;;;;5074113;28;20347;-76
2022/07/21 01:57:19;;;;;;;7.95;4.28;;;15.80;99.90;;;;;;5074586;28;20384;-75
2022/07/21 01:59:46;;;;;;;7.82;4.32;;;15.80;99.90;;;;;;5077206;28;20044;-75
2022/07/21 02:02:14;;;;;;;7.43;4.28;;;15.80;99.90;;;;;;5075996;28;20070;-76
2022/07/21 02:04:41;;;;;;;6.70;4.05;;;15.80;99.90;;;;;;5077068;28;20102;-76
2022/07/21 02:07:08;;;;;;;7.30;3.90;;;15.70;99.90;;;;;;5076587;28;20049;-77
2022/07/21 02:09:36;;;;;;;5.80;3.72;;;15.70;99.90;;;;;;5077168;28;20041;-77
2022/07/21 02:12:05;;;;;;;6.13;4.00;;;15.70;99.90;;;;;;5075804;28;20056;-76
2022/07/21 02:14:32;;;;;;;10.77;4.95;;;15.70;99.90;;;;;;5073920;28;20052;-75
2022/07/21 02:17:00;;;;;;;8.40;4.70;;;15.60;99.90;;;;;;5075106;28;20123;-76
2022/07/21 02:19:27;;;;;;;9.35;5.00;;;15.60;99.90;;;;;;5074190;28;20044;-78
2022/07/21 02:21:54;;;;;;;7.93;3.90;;;15.60;99.90;;;;;;5073911;28;20495;-76
2022/07/21 02:24:22;;;;;;;5.60;4.47;;;15.50;99.90;;;;;;5090609;28;20028;-76
2022/07/21 02:26:49;;;;;;;7.90;4.50;;;15.60;99.90;;;;;;5078369;28;20418;-75
2022/07/21 02:29:18;;;;;;;8.65;4.47;;;15.50;99.90;;;;;;5073988;28;20514;-77
2022/07/21 02:31:45;;;;;;;7.38;4.20;;;15.50;99.90;;;;;;5077957;28;20074;-76
2022/07/21 02:34:12;;;;;;;11.43;4.93;;;15.50;99.90;;;;;;5076845;28;20052;-76
2022/07/21 02:36:40;;;;;;;6.43;4.22;;;15.40;99.90;;;;;;5076310;28;20097;-76
2022/07/21 02:39:07;;;;;;;8.07;4.82;;;15.40;99.90;;;;;;5080204;28;20067;-75
2022/07/21 02:41:34;;;;;;;6.55;4.60;;;15.40;99.90;;;;;;5097194;28;20048;-76
2022/07/21 02:44:01;;;;;;;6.53;4.65;;;15.30;99.90;;;;;;5096791;28;20063;-77
2022/07/21 02:46:30;;;;;;;5.72;4.22;;;15.30;99.90;;;;;;5098329;28;20040;-76
2022/07/21 02:48:57;;;;;;;9.63;4.88;;;15.20;99.90;;;;;;5098332;28;20131;-76
2022/07/21 02:51:29;;;;;;;7.45;4.97;;;15.20;99.90;;;;;;5100387;28;20131;-77
2022/07/21 02:53:56;;;;;;;7.53;5.00;;;15.20;99.90;;;;;;5099260;28;20098;-77
2022/07/21 02:56:23;;;;;;;7.45;4.50;;;15.10;99.90;;;;;;5078612;28;20040;-76
2022/07/21 02:58:51;;;;;;;8.65;4.70;;;15.10;99.90;;;;;;5078660;28;20071;-76
2022/07/21 03:01:19;;;;;;;7.70;5.05;;;15.10;99.90;;;;;;5097026;28;20059;-77
2022/07/21 03:03:49;;;;;;;7.88;4.75;;;15.10;99.90;;;;;;5096658;28;20494;-77
2022/07/21 03:06:17;;;;;;;8.02;4.85;;;15.10;99.90;;;;;;5096980;28;20036;-76
2022/07/21 03:08:44;;;;;;;6.95;4.28;;;15.00;99.90;;;;;;5096781;28;20097;-77
2022/07/21 03:11:11;;;;;;;6.15;4.38;;;15.00;99.90;;;;;;5097371;28;20048;-77
2022/07/21 03:13:38;;;;;;;8.00;5.00;;;15.10;99.90;;;;;;5079105;28;20395;-75
2022/07/21 03:16:06;;;;;;;7.40;4.47;;;15.10;99.90;;;;;;5096922;28;20060;-76
2022/07/21 03:18:35;;;;;;;10.13;4.65;;;15.00;99.90;;;;;;5097273;28;20040;-75
2022/07/21 03:21:04;;;;;;;6.95;4.40;;;14.90;99.90;;;;;;5096550;28;20040;-77
2022/07/21 03:23:31;;;;;;;9.13;4.82;;;15.00;99.90;;;;;;5079783;28;20083;-77
2022/07/21 03:25:58;;;;;;;6.57;5.00;;;14.90;99.90;;;;;;5097075;28;20036;-76
2022/07/21 03:28:25;;;;;;;8.23;4.93;;;15.00;99.90;;;;;;5096456;28;20079;-75
2022/07/21 03:30:53;;;;;;;10.02;5.10;;;15.00;99.90;;;;;;5095649;28;20464;-76
2022/07/21 03:33:20;;;;;;;8.20;4.75;;;15.00;99.90;;;;;;5077546;28;20552;-77
2022/07/21 03:35:47;;;;;;;10.73;5.50;;;15.10;99.90;;;;;;5096493;28;20162;-76
2022/07/21 03:38:16;;;;;;;9.88;5.88;;;15.10;99.90;;;;;;5096097;28;20051;-76
2022/07/21 03:40:43;;;;;;;10.40;6.50;;;15.10;99.90;;;;;;5095921;28;20079;-78
2022/07/21 03:43:10;;;;;;;13.95;7.28;;;15.10;99.90;;;;;;5096738;28;20058;-77
2022/07/21 03:45:38;;;;;;;9.93;7.35;;;15.10;99.90;;;;;;5096970;28;20074;-77
2022/07/21 03:48:07;;;;;;;9.90;6.10;;;15.20;99.90;;;;;;5096012;28;20483;-76
2022/07/21 03:50:35;;;;;;;10.23;5.82;;;15.20;99.90;;;;;;5079431;28;20055;-75
2022/07/21 03:53:02;;;;;;;8.00;5.40;;;15.20;99.90;;;;;;5097135;28;20044;-77
2022/07/21 03:55:32;;;;;;;9.32;5.25;;;15.30;99.90;;;;;;5096458;28;20063;-75
2022/07/21 03:58:01;;;;;;;11.32;5.07;;;15.40;99.90;;;;;;5096565;28;20059;-77
2022/07/21 04:00:32;;;;;;;10.73;5.25;;;15.60;99.90;;;;;;5097650;28;20036;-76
2022/07/21 04:03:00;;;;;;;7.15;5.18;;;16.10;99.90;;;;;;5095789;28;20036;-76
2022/07/21 04:05:28;;;;;;;11.60;4.82;;;16.80;99.90;;;;;;5095933;28;20036;-78
2022/07/21 04:07:56;;;;;;;7.28;5.35;;;17.40;99.90;;;;;;5077449;28;20372;-76
2022/07/21 04:10:26;;;;;;;8.75;5.82;;;18.00;99.90;;;;;;5095717;28;20036;-76
2022/07/21 04:12:55;;;;;;;26.50;8.10;;;18.40;99.90;;;;;;5077440;28;20467;-76
2022/07/21 04:15:23;;;;;;;9.95;6.38;;;19.00;99.90;;;;;;5095995;28;20048;-76
2022/07/21 04:17:51;;;;;;;14.27;6.13;;;19.40;99.90;;;;;;5095574;28;20127;-75
2022/07/21 04:20:19;;;;;;;9.27;5.20;;;19.80;99.90;;;;;;5101122;28;20051;-76
2022/07/21 04:22:48;;;;;;;10.60;4.63;;;20.20;99.90;;;;;;5115367;28;20048;-76
2022/07/21 04:25:16;;;;;;;10.15;5.10;;;20.30;99.90;;;;;;5109774;28;20055;-77
2022/07/21 04:27:44;;;;;;;11.20;4.88;;;20.70;99.90;;;;;;5107630;28;20047;-77
2022/07/21 04:30:15;;;;;;;12.20;4.63;;;21.00;99.90;;;;;;5097437;28;20070;-76
2022/07/21 04:32:42;;;;;;;12.70;4.30;;;21.30;99.90;;;;;;5096410;28;20039;-78
2022/07/21 04:35:10;;;;;;;11.88;4.78;;;21.60;99.90;;;;;;5096323;28;20048;-76
2022/07/21 04:37:38;;;;;;;10.35;5.45;;;21.60;99.90;;;;;;5095976;28;20162;-77
2022/07/21 04:40:07;;;;;;;8.02;4.13;;;22.50;99.90;;;;;;5078829;28;20044;-76
2022/07/21 04:42:36;;;;;;;14.13;5.15;;;23.00;99.90;;;;;;5096343;28;20119;-76
2022/07/21 04:45:04;;;;;;;10.80;5.28;;;23.40;99.90;;;;;;5095710;28;20044;-78
2022/07/21 04:47:33;;;;;;;7.82;5.55;;;23.80;99.90;;;;;;5095992;28;20118;-78
2022/07/21 04:50:01;;;;;;;7.00;4.20;;;24.20;99.90;;;;;;5095599;28;20070;-77
2022/07/21 04:52:28;;;;;;;11.65;4.90;;;24.70;99.90;;;;;;5095973;28;20064;-77
2022/07/21 04:54:55;;;;;;;10.95;4.65;;;25.30;99.90;;;;;;5095830;28;20068;-79
2022/07/21 04:57:22;;;;;;;9.15;5.43;;;25.60;99.90;;;;;;5095884;28;20060;-77
2022/07/21 04:59:49;;;;;;;37.83;9.45;;;26.00;99.90;;;;;;5095758;28;20040;-77
2022/07/21 05:02:17;;;;;;;12.13;8.38;;;26.40;99.90;;;;;;5096159;28;20078;-77
2022/07/21 05:04:45;;;;;;;13.73;8.52;;;26.10;99.90;;;;;;5095746;28;20126;-78
2022/07/21 05:07:13;;;;;;;20.50;9.23;;;25.40;99.90;;;;;;5077373;28;20043;-77
2022/07/21 05:09:40;;;;;;;13.35;6.25;;;24.80;99.90;;;;;;5096046;28;20055;-78
2022/07/21 05:12:07;;;;;;;12.27;6.13;;;24.40;99.90;;;;;;5096349;28;20093;-77
2022/07/21 05:14:35;;;;;;;11.88;5.30;;;25.00;99.90;;;;;;5097289;28;20040;-78
2022/07/21 05:17:02;;;;;;;9.63;5.40;;;25.90;99.90;;;;;;5110377;28;20052;-79
2022/07/21 05:19:29;;;;;;;16.63;10.27;;;26.40;99.90;;;;;;5108120;28;20040;-77
2022/07/21 05:21:58;;;;;;;14.90;9.80;;;27.40;98.20;;;;;;5111208;28;20044;-77
2022/07/21 05:24:25;;;;;;;18.63;10.57;;;27.80;97.20;;;;;;5110038;28;20042;-77
2022/07/21 05:26:52;;;;;;;10.27;5.40;;;27.90;95.80;;;;;;5101882;28;20048;-77
2022/07/21 05:29:20;;;;;;;10.00;5.57;;;28.00;94.80;;;;;;5108933;28;20105;-77
2022/07/21 05:31:47;;;;;;;13.38;7.32;;;28.10;93.50;;;;;;5113023;28;20067;-77
2022/07/21 05:34:14;;;;;;;9.07;4.63;;;27.70;93.20;;;;;;5087552;28;20052;-78
2022/07/21 05:36:41;;;;;;;8.55;4.55;;;27.50;92.60;;;;;;5096652;28;20097;-77
2022/07/21 05:39:10;;;;;;;9.32;4.20;;;27.50;93.20;;;;;;5095257;28;20052;-76
2022/07/21 05:41:37;;;;;;;11.40;5.50;;;27.50;93.00;;;;;;5095862;28;20521;-78
2022/07/21 05:44:05;;;;;;;14.13;7.10;;;27.80;91.90;;;;;;5095549;28;20040;-75
2022/07/21 05:46:32;;;;;;;13.43;6.65;;;27.80;92.40;;;;;;5095978;28;20036;-80
2022/07/21 05:48:59;;;;;;;13.85;5.93;;;27.80;92.60;;;;;;5094813;28;20036;-76
2022/07/21 05:51:27;;;;;;;15.27;4.97;;;27.70;92.50;;;;;;5095327;28;20407;-77
2022/07/21 05:53:54;;;;;;;10.27;4.85;;;27.60;92.40;;;;;;5077361;28;20047;-78
2022/07/21 05:56:23;;;;;;;13.65;6.32;;;27.10;92.50;;;;;;5094960;28;20044;-76
2022/07/21 05:58:50;;;;;;;14.75;9.43;;;27.10;93.20;;;;;;5096415;28;20036;-78
2022/07/21 06:01:17;;;;;;;13.48;6.85;;;27.20;92.90;;;;;;5094910;28;20113;-77
2022/07/21 06:03:46;;;;;;;12.00;5.95;;;27.00;93.10;;;;;;5096047;28;20032;-76
2022/07/21 06:06:16;;;;;;;14.07;6.70;;;26.70;92.80;;;;;;5098311;28;20043;-77
2022/07/21 06:08:45;;;;;;;15.73;10.40;;;26.60;93.40;;;;;;5098481;28;20047;-78
2022/07/21 06:11:14;;;;;;;19.85;8.93;;;26.60;93.30;;;;;;5099314;28;20181;-78
2022/07/21 06:13:43;;;;;;;23.77;10.75;;;26.50;93.30;;;;;;5098533;28;20051;-77
2022/07/21 06:16:11;;;;;;;16.55;7.22;;;26.70;92.90;;;;;;5099102;28;20113;-77
2022/07/21 06:18:38;;;;;;;16.13;6.45;;;26.80;93.20;;;;;;5111352;28;20027;-77
2022/07/21 06:21:06;;;;;;;15.07;10.77;;;27.00;93.40;;;;;;5107964;28;20056;-76
2022/07/21 06:23:33;;;;;;;15.80;10.85;;;27.10;92.70;;;;;;5098491;28;20052;-76
2022/07/21 06:26:01;;;;;;;16.95;5.63;;;27.00;92.50;;;;;;5101000;28;20051;-76
2022/07/21 06:28:28;;;;;;;11.57;5.32;;;27.10;92.60;;;;;;5100122;28;20032;-76
2022/07/21 06:30:57;;;;;;;16.50;6.55;;;27.40;92.30;;;;;;5099354;28;20445;-77
2022/07/21 06:33:24;;;;;;;18.95;7.40;;;27.70;92.00;;;;;;5098726;28;20043;-78
2022/07/21 06:35:51;;;;;;;15.35;7.03;;;27.70;92.20;;;;;;5099356;28;20044;-76
2022/07/21 06:38:19;;;;;;;28.20;7.85;;;27.80;92.20;;;;;;5098778;28;20080;-78
2022/07/21 06:40:46;;;;;;;25.42;8.05;;;27.50;91.50;;;;;;5098249;28;20115;-77
2022/07/21 06:43:13;;;;;;;20.73;7.65;;;27.50;91.80;;;;;;5097586;28;20047;-78
2022/07/21 06:45:41;;;;;;;22.08;8.50;;;27.80;91.60;;;;;;5098638;28;20048;-78
2022/07/21 06:48:10;;;;;;;17.85;8.52;;;28.10;91.60;;;;;;5098836;28;20124;-77
2022/07/21 06:50:38;;;;;;;24.40;9.07;;;28.30;91.10;;;;;;5098295;28;20040;-75
2022/07/21 06:53:06;;;;;;;24.13;8.65;;;28.50;91.10;;;;;;5098464;28;20048;-77
2022/07/21 06:55:33;;;;;;;51.40;9.52;;;28.60;91.00;;;;;;5098100;28;20060;-78
2022/07/21 06:58:10;;;;;;;31.35;8.80;;;28.40;90.70;;;;;;5098625;28;20036;-76
2022/07/21 07:00:38;;;;;;;14.55;7.10;;;28.50;92.00;;;;;;5097719;28;20059;-76
2022/07/21 07:03:05;;;;;;;13.73;7.78;;;28.70;91.10;;;;;;5097998;28;20040;-78
2022/07/21 07:05:34;;;;;;;13.55;7.82;;;28.80;90.90;;;;;;5080010;28;20095;-76
2022/07/21 07:08:01;;;;;;;22.23;7.55;;;29.00;91.70;;;;;;5098016;28;20028;-77
2022/07/21 07:10:29;;;;;;;16.25;8.35;;;29.10;91.10;;;;;;5097810;28;20484;-78
2022/07/21 07:12:57;;;;;;;26.45;7.70;;;29.20;89.00;;;;;;5098300;28;20032;-77
2022/07/21 07:15:25;;;;;;;21.67;7.88;;;28.90;88.90;;;;;;5097304;28;20064;-76
2022/07/21 07:17:52;;;;;;;22.75;7.93;;;29.00;88.70;;;;;;5098649;28;20033;-78
2022/07/21 07:20:20;;;;;;;20.02;7.93;;;29.30;88.90;;;;;;5098005;28;20047;-76
2022/07/21 07:22:49;;;;;;;18.13;7.03;;;29.30;88.60;;;;;;5079956;28;20040;-78
2022/07/21 07:25:17;;;;;;;17.90;7.32;;;29.50;87.50;;;;;;5079653;28;20044;-76
2022/07/21 07:27:45;;;;;;;19.35;8.50;;;29.70;86.20;;;;;;5098219;28;20133;-78
2022/07/21 07:30:13;;;;;;;17.85;10.40;;;29.70;88.10;;;;;;5098140;28;20126;-78
2022/07/21 07:32:41;;;;;;;24.00;14.27;;;29.80;88.60;;;;;;5098231;28;20097;-77
2022/07/21 07:35:09;;;;;;;31.88;14.70;;;29.90;88.30;;;;;;5098545;28;20488;-78
2022/07/21 07:37:37;;;;;;;22.83;11.38;;;29.90;88.70;;;;;;5098173;28;20056;-77
2022/07/21 07:40:09;;;;;;;15.80;8.55;;;30.10;92.80;;;;;;5079582;28;20071;-77
2022/07/21 07:42:37;;;;;;;24.92;9.65;;;30.30;93.30;;;;;;5097886;28;20550;-77
2022/07/21 07:45:06;;;;;;;21.52;7.57;;;30.20;90.30;;;;;;5098280;28;20036;-78
2022/07/21 07:47:33;;;;;;;15.88;6.75;;;30.10;90.30;;;;;;5079598;28;20051;-77
2022/07/21 07:50:01;;;;;;;21.67;8.55;;;30.10;90.90;;;;;;5097295;28;20040;-77
2022/07/21 07:52:29;;;;;;;16.25;8.10;;;30.00;90.90;;;;;;5096855;28;20549;-77
2022/07/21 07:54:56;;;;;;;14.20;7.95;;;30.10;91.00;;;;;;5097413;28;20058;-77
2022/07/21 07:57:25;;;;;;;18.65;8.43;;;30.20;91.30;;;;;;5098212;28;20063;-76
2022/07/21 07:59:52;;;;;;;13.02;7.03;;;30.50;90.70;;;;;;5097730;28;20055;-77
2022/07/21 08:02:19;;;;;;;17.40;8.23;;;30.60;90.30;;;;;;5097611;28;20070;-77
2022/07/21 08:04:47;;;;;;;14.23;6.78;;;30.60;90.30;;;;;;5096436;28;20090;-77
2022/07/21 08:07:14;;;;;;;15.75;6.90;;;30.50;90.40;;;;;;5096703;28;20051;-77
2022/07/21 08:09:41;;;;;;;15.20;7.32;;;30.30;91.30;;;;;;5078252;28;20539;-78
2022/07/21 08:12:09;;;;;;;21.25;6.60;;;30.20;90.60;;;;;;5096780;28;20044;-77
2022/07/21 08:14:38;;;;;;;19.77;6.82;;;30.10;90.80;;;;;;5113763;28;20032;-77
2022/07/21 08:17:06;;;;;;;13.25;7.03;;;30.00;91.10;;;;;;5103345;28;20051;-77
2022/07/21 08:19:33;;;;;;;12.35;6.45;;;29.90;90.70;;;;;;5098320;28;20093;-76
2022/07/21 08:22:01;;;;;;;11.05;6.80;;;30.10;90.90;;;;;;5081875;28;20064;-77
2022/07/21 08:24:28;;;;;;;16.83;8.13;;;30.40;90.10;;;;;;5107078;28;20047;-77
2022/07/21 08:26:55;;;;;;;10.02;6.78;;;30.70;90.00;;;;;;5103432;28;20052;-76
2022/07/21 08:29:23;;;;;;;9.70;6.05;;;30.80;91.30;;;;;;5096600;28;20525;-76
2022/07/21 08:31:51;;;;;;;14.82;6.40;;;30.80;88.00;;;;;;5096488;28;20051;-77
2022/07/21 08:34:19;;;;;;;13.07;7.03;;;31.10;88.30;;;;;;5097185;28;20123;-76
2022/07/21 08:36:46;;;;;;;9.93;6.15;;;31.30;87.30;;;;;;5095893;28;20060;-78
2022/07/21 08:39:13;;;;;;;11.88;5.65;;;31.20;83.90;;;;;;5095341;28;20056;-76
2022/07/21 08:41:41;;;;;;;14.32;7.30;;;31.20;83.90;;;;;;5095686;28;20040;-76
2022/07/21 08:44:10;;;;;;;16.80;8.38;;;31.30;82.90;;;;;;5095296;28;20048;-77
2022/07/21 08:46:39;;;;;;;13.25;8.27;;;31.30;81.80;;;;;;5097168;28;20056;-77
2022/07/21 08:49:09;;;;;;;14.75;7.22;;;31.30;80.60;;;;;;5096358;28;20040;-77
2022/07/21 08:51:36;;;;;;;10.55;7.07;;;31.40;80.00;;;;;;5097919;28;20513;-78
2022/07/21 08:54:05;;;;;;;11.52;6.25;;;31.60;79.10;;;;;;5095706;28;20449;-75
2022/07/21 08:56:32;;;;;;;15.35;8.43;;;31.50;77.10;;;;;;5096613;28;20043;-77
2022/07/21 08:58:59;;;;;;;12.68;6.90;;;31.50;76.30;;;;;;5095483;28;20036;-77
2022/07/21 09:01:27;;;;;;;14.73;6.13;;;31.50;75.90;;;;;;5077795;28;20093;-77
2022/07/21 09:03:55;;;;;;;25.23;8.35;;;31.60;75.70;;;;;;5096206;28;20086;-77
2022/07/21 09:06:23;;;;;;;10.52;5.82;;;31.70;75.80;;;;;;5077361;28;20075;-77
2022/07/21 09:08:54;;;;;;;9.73;5.53;;;31.80;74.30;;;;;;5095867;28;20044;-77
2022/07/21 09:11:23;;;;;;;11.35;5.32;;;31.90;73.80;;;;;;5095802;28;20111;-76
2022/07/21 09:14:06;;;;;;;11.15;5.75;;;31.70;74.10;;;;;;5094780;28;20044;-77
2022/07/21 09:16:35;;;;;;;8.95;5.40;;;31.80;73.70;;;;;;5096020;28;20164;-77
2022/07/21 09:19:04;;;;;;;8.40;7.47;;;32.10;72.60;;;;;;5095277;28;20040;-79
2022/07/21 09:21:34;;;;;;;13.02;9.35;;;32.10;72.20;;;;;;5095735;28;20113;-78
2022/07/21 09:24:20;;;;;;;15.25;8.05;;;32.10;71.30;;;;;;5094914;28;20048;-77
2022/07/21 09:27:03;;;;;;;11.90;5.90;;;32.10;71.20;;;;;;5094949;28;20048;-76
2022/07/21 09:29:45;;;;;;;12.30;6.30;;;32.20;71.20;;;;;;5094867;28;20040;-76
2022/07/21 09:32:26;;;;;;;18.35;12.07;;;32.30;71.00;;;;;;5094828;28;20044;-77
2022/07/21 09:34:59;;;;;;;11.43;5.90;;;32.50;70.00;;;;;;5094806;28;20073;-77
2022/07/21 09:37:28;;;;;;;16.25;6.07;;;32.50;69.70;;;;;;5094466;28;20054;-77
2022/07/21 09:39:58;;;;;;;13.88;7.18;;;32.60;69.30;;;;;;5097157;28;20048;-77
2022/07/21 09:42:27;;;;;;;10.77;6.80;;;32.80;68.10;;;;;;5098377;28;20040;-77
2022/07/21 09:44:58;;;;;;;8.82;5.63;;;32.80;67.60;;;;;;5099093;28;20044;-77
2022/07/21 09:47:27;;;;;;;9.15;5.75;;;33.00;66.90;;;;;;5099173;28;20519;-76
2022/07/21 09:49:56;;;;;;;20.95;7.47;;;33.20;65.70;;;;;;5123917;22;20055;-77
2022/07/21 09:52:30;;;;;;;12.85;8.07;;;33.30;64.80;;;;;;5112443;28;20052;-77
2022/07/21 09:55:00;;;;;;;8.43;3.90;;;33.50;62.30;;;;;;5121493;28;20073;-77
2022/07/21 09:57:29;;;;;;;7.00;4.10;;;33.50;58.20;;;;;;5120754;28;20283;-77
2022/07/21 09:59:57;;;;;;;11.75;5.50;;;33.30;58.30;;;;;;5120296;28;20066;-77
2022/07/21 10:02:26;;;;;;;9.15;5.10;;;33.40;58.70;;;;;;5117799;28;20043;-76
2022/07/21 10:04:58;;;;;;;9.15;5.28;;;33.50;58.40;;;;;;5098948;28;20044;-77
2022/07/21 10:07:28;;;;;;;7.38;4.60;;;33.50;58.10;;;;;;5117588;28;20039;-77
2022/07/21 10:09:57;;;;;;;10.18;6.38;;;33.60;57.50;;;;;;5117237;28;20028;-76
2022/07/21 10:12:26;;;;;;;8.23;6.18;;;33.50;57.10;;;;;;5117227;28;20452;-77
2022/07/21 10:14:55;;;;;;;8.77;4.50;;;33.30;57.20;;;;;;5118844;28;20112;-76
2022/07/21 10:17:24;;;;;;;6.90;4.70;;;33.40;56.40;;;;;;5099259;28;20051;-76
2022/07/21 10:20:03;;;;;;;7.40;3.80;;;33.20;56.40;;;;;;5117715;28;20047;-77
2022/07/21 10:22:52;;;;;;;6.30;3.60;;;33.00;56.60;;;;;;5099025;28;20101;-77
2022/07/21 10:25:21;;;;;;;11.63;4.38;;;33.20;56.40;;;;;;5117478;28;20516;-78
2022/07/21 10:28:18;;;;;;;18.48;11.60;;;33.30;56.20;;;;;;5117645;28;20048;-77
2022/07/21 10:30:48;;;;;;;13.65;4.50;;;33.50;55.90;;;;;;5114594;28;20054;-78
2022/07/21 10:33:19;;;;;;;10.75;4.35;;;33.70;55.40;;;;;;5117077;28;20428;-77
2022/07/21 10:35:48;;;;;;;11.30;9.02;;;33.80;54.90;;;;;;5117369;28;20044;-77
2022/07/21 10:38:31;;;;;;;10.20;4.65;;;33.90;54.00;;;;;;5117372;28;20093;-77
2022/07/21 10:41:00;;;;;;;6.60;4.57;;;34.00;53.40;;;;;;5116926;28;20062;-77
2022/07/21 10:43:42;;;;;;;10.43;5.65;;;34.00;51.20;;;;;;5116835;28;20048;-77
2022/07/21 10:46:40;;;;;;;9.45;3.95;;;33.80;50.00;;;;;;5117432;28;20043;-77
2022/07/21 10:49:09;;;;;;;7.72;3.75;;;33.50;50.60;;;;;;5098776;28;20052;-77
2022/07/21 10:51:39;;;;;;;10.75;3.83;;;33.50;50.10;;;;;;5117271;28;20056;-77
2022/07/21 10:54:26;;;;;;;7.85;4.13;;;33.50;50.30;;;;;;5117803;28;20054;-77
2022/07/21 10:57:26;;;;;;;5.88;3.75;;;33.40;50.30;;;;;;5099373;28;20082;-78
2022/07/21 11:00:27;;;;;;;6.97;3.50;;;33.60;50.20;;;;;;5117871;28;20078;-76
2022/07/21 11:02:57;;;;;;;6.25;3.30;;;33.20;50.20;;;;;;5116757;28;20039;-76
2022/07/21 11:05:26;;;;;;;5.88;2.88;;;33.40;49.90;;;;;;5117483;28;20055;-78
2022/07/21 11:08:14;;;;;;;5.95;3.15;;;33.30;49.90;;;;;;5099439;28;20048;-77
2022/07/21 11:10:46;;;;;;;9.07;3.13;;;33.40;50.40;;;;;;5099111;28;20066;-77
2022/07/21 11:13:15;;;;;;;4.20;3.40;;;33.40;50.40;;;;;;5116375;28;20486;-77
2022/07/21 11:15:58;;;;;;;5.53;3.00;;;33.60;50.60;;;;;;5098956;28;20039;-77
2022/07/21 11:18:27;;;;;;;6.00;3.13;;;33.50;50.30;;;;;;5116477;28;20064;-77
2022/07/21 11:21:12;;;;;;;4.82;3.28;;;33.30;49.60;;;;;;5098469;28;20110;-76
2022/07/21 11:23:45;;;;;;;5.45;3.30;;;33.10;49.60;;;;;;5116569;28;20053;-76
2022/07/21 11:26:16;;;;;;;7.10;3.67;;;33.20;49.30;;;;;;5098477;28;20092;-77
2022/07/21 11:28:45;;;;;;;8.52;3.72;;;33.00;49.40;;;;;;5116642;28;20045;-77
2022/07/21 11:31:25;;;;;;;6.07;3.70;;;33.10;49.70;;;;;;5115717;28;20114;-77
2022/07/21 11:33:53;;;;;;;7.43;3.70;;;33.30;50.00;;;;;;5115663;28;20044;-77
2022/07/21 11:36:29;;;;;;;6.20;3.60;;;33.40;49.60;;;;;;5097444;28;20059;-77
2022/07/21 11:39:04;;;;;;;6.45;3.88;;;33.50;49.50;;;;;;5115731;28;20044;-77
2022/07/21 11:41:34;;;;;;;6.68;3.90;;;33.80;49.30;;;;;;5115580;28;20044;-77
2022/07/21 11:44:02;;;;;;;7.78;3.90;;;33.90;49.00;;;;;;5115707;28;20036;-77
2022/07/21 11:46:45;;;;;;;7.28;3.80;;;34.00;48.50;;;;;;5115588;28;20048;-77
2022/07/21 11:49:12;;;;;;;8.80;3.45;;;33.80;48.30;;;;;;5115586;28;20077;-77
2022/07/21 11:51:51;;;;;;;7.57;3.55;;;33.70;48.50;;;;;;5115694;28;20089;-77
2022/07/21 11:54:23;;;;;;;8.40;3.28;;;33.80;48.40;;;;;;5096939;28;20055;-77
2022/07/21 11:56:53;;;;;;;8.00;3.60;;;33.70;48.30;;;;;;5096958;28;20059;-77
2022/07/21 11:59:23;;;;;;;4.93;3.83;;;33.60;48.80;;;;;;5116355;28;20547;-78
2022/07/21 12:02:03;;;;;;;13.93;9.75;;;33.70;48.80;;;;;;5116408;28;20070;-77
2022/07/21 12:04:42;;;;;;;7.63;4.05;;;33.60;48.80;;;;;;5116887;28;20406;-77
2022/07/21 12:07:19;;;;;;;8.77;4.43;;;33.80;48.40;;;;;;5097998;28;20047;-77
2022/07/21 12:09:48;;;;;;;8.75;4.60;;;33.90;48.50;;;;;;5098858;28;20061;-77
2022/07/21 12:12:33;;;;;;;6.40;4.35;;;33.90;48.40;;;;;;5122647;28;20044;-77
2022/07/21 12:15:17;;;;;;;5.15;3.83;;;33.90;47.80;;;;;;5131933;28;20048;-76
2022/07/21 12:17:47;;;;;;;6.13;3.60;;;33.70;47.40;;;;;;5132925;28;20069;-76
2022/07/21 12:20:16;;;;;;;5.45;3.80;;;33.50;47.90;;;;;;5126736;28;20479;-77
2022/07/21 12:22:46;;;;;;;7.30;3.78;;;33.50;47.70;;;;;;5117049;28;20122;-76
2022/07/21 12:25:16;;;;;;;6.72;3.20;;;33.50;47.60;;;;;;5116963;28;20063;-77
2022/07/21 12:27:49;;;;;;;5.22;3.45;;;33.60;47.40;;;;;;5117552;28;20063;-77
2022/07/21 12:30:34;;;;;;;8.32;3.50;;;33.60;47.20;;;;;;5115576;28;20043;-77
2022/07/21 12:33:05;;;;;;;8.70;3.70;;;33.60;47.00;;;;;;5114556;28;20040;-77
2022/07/21 12:35:34;;;;;;;8.68;4.40;;;33.70;47.40;;;;;;5096779;28;20058;-77
2022/07/21 12:38:06;;;;;;;5.25;3.53;;;34.00;47.60;;;;;;5114509;28;20113;-77
2022/07/21 12:40:35;;;;;;;8.25;4.20;;;34.00;46.20;;;;;;5096184;28;20051;-77
2022/07/21 12:43:12;;;;;;;7.47;4.00;;;33.90;46.50;;;;;;5114756;28;20126;-78
2022/07/21 12:45:55;;;;;;;6.20;3.70;;;33.80;46.90;;;;;;5096378;28;20120;-77
2022/07/21 12:48:25;;;;;;;6.32;3.67;;;33.90;46.70;;;;;;5114634;28;20047;-77
2022/07/21 12:51:05;;;;;;;4.80;3.63;;;33.80;46.50;;;;;;5113788;28;20055;-77
2022/07/21 12:53:35;;;;;;;6.53;4.30;;;33.80;46.70;;;;;;5114398;28;20040;-77
2022/07/21 12:56:03;;;;;;;6.75;3.53;;;33.90;46.90;;;;;;5096776;28;20170;-77
2022/07/21 12:58:32;;;;;;;7.97;4.10;;;34.00;46.70;;;;;;5114294;28;20043;-77
2022/07/21 13:01:00;;;;;;;9.68;3.75;;;34.00;47.00;;;;;;5096572;28;20063;-77
2022/07/21 13:03:30;;;;;;;7.30;6.10;;;34.00;46.80;;;;;;5114133;28;20130;-77
2022/07/21 13:05:58;;;;;;;6.38;4.72;;;34.00;46.70;;;;;;5114490;28;20532;-78
2022/07/21 13:08:25;;;;;;;6.97;3.47;;;34.00;46.20;;;;;;5114218;28;20067;-77
2022/07/21 13:10:53;;;;;;;7.03;4.43;;;34.00;46.00;;;;;;5114222;28;20544;-78
2022/07/21 13:13:21;;;;;;;9.35;3.38;;;34.00;46.10;;;;;;5113753;28;20036;-77
2022/07/21 13:15:50;;;;;;;9.32;4.22;;;33.80;45.90;;;;;;5114515;28;20065;-77
2022/07/21 13:18:17;;;;;;;7.25;3.50;;;33.80;46.40;;;;;;5114260;28;20043;-77
2022/07/21 13:20:45;;;;;;;10.88;4.70;;;33.80;46.20;;;;;;5114807;28;20035;-77
2022/07/21 13:23:13;;;;;;;5.40;3.53;;;33.80;46.30;;;;;;5113767;28;20055;-77
2022/07/21 13:25:40;;;;;;;8.27;3.13;;;33.90;46.00;;;;;;5113919;28;20096;-77
2022/07/21 13:28:08;;;;;;;33.05;23.08;;;33.80;46.00;;;;;;5113909;28;20048;-78
2022/07/21 13:30:36;;;;;;;11.57;7.57;;;33.70;45.70;;;;;;5078734;28;20066;-77
2022/07/21 13:33:05;;;;;;;8.20;5.10;;;33.80;46.00;;;;;;5114300;28;20039;-77
2022/07/21 13:35:33;;;;;;;6.85;3.33;;;34.00;45.80;;;;;;5118209;28;20486;-77
2022/07/21 13:38:00;;;;;;;6.32;3.80;;;33.80;45.20;;;;;;5119115;28;20044;-77
2022/07/21 13:40:29;;;;;;;6.35;3.63;;;33.70;45.30;;;;;;5115081;28;20116;-76
2022/07/21 13:42:57;;;;;;;5.75;3.55;;;33.80;45.40;;;;;;5114152;28;20077;-77
2022/07/21 13:45:25;;;;;;;7.30;3.90;;;33.80;45.30;;;;;;5113851;28;20074;-77
2022/07/21 13:47:53;;;;;;;6.28;3.95;;;33.90;45.20;;;;;;5113648;28;20402;-77
2022/07/21 13:50:22;;;;;;;7.97;5.35;;;33.90;45.50;;;;;;5114942;28;20052;-77
2022/07/21 13:52:49;;;;;;;12.23;7.43;;;33.90;45.40;;;;;;5113934;28;20044;-77
2022/07/21 13:55:17;;;;;;;7.25;5.80;;;33.90;45.10;;;;;;5114187;28;20083;-77
2022/07/21 13:57:45;;;;;;;7.47;4.53;;;33.90;45.00;;;;;;5114079;28;20043;-77
2022/07/21 14:00:13;;;;;;;9.05;4.30;;;33.80;44.70;;;;;;5114878;28;20081;-77
2022/07/21 14:02:43;;;;;;;7.60;4.15;;;33.90;45.30;;;;;;5114514;28;20043;-77
2022/07/21 14:05:10;;;;;;;7.85;3.55;;;33.80;44.50;;;;;;5116647;28;20047;-78
2022/07/21 14:07:39;;;;;;;5.90;4.38;;;33.80;44.20;;;;;;5114979;28;20501;-77
2022/07/21 14:10:08;;;;;;;10.88;3.85;;;33.70;44.00;;;;;;5114142;28;20040;-77
2022/07/21 14:12:36;;;;;;;5.28;3.50;;;33.70;43.90;;;;;;5114274;28;20119;-77
2022/07/21 14:15:04;;;;;;;7.05;3.63;;;33.70;43.70;;;;;;5096748;28;20048;-77
2022/07/21 14:17:31;;;;;;;10.70;3.72;;;33.70;43.80;;;;;;5114814;28;20448;-78
2022/07/21 14:19:59;;;;;;;8.93;4.13;;;33.80;44.20;;;;;;5114893;28;20036;-78
2022/07/21 14:22:26;;;;;;;9.00;3.90;;;33.90;45.20;;;;;;5095787;28;20047;-77
2022/07/21 14:27:40;;;;;;;8.15;3.95;;;33.90;45.20;;;;;;5140016;28;20044;-77
2022/07/21 14:30:09;;;;;;;6.22;3.63;;;33.90;45.20;;;;;;5120235;28;20069;-76
2022/07/21 14:32:36;;;;;;;5.80;3.75;;;33.90;45.70;;;;;;5138516;28;20061;-77
2022/07/21 14:35:04;;;;;;;8.20;3.53;;;34.00;44.70;;;;;;5132767;28;20081;-76